Time;durP1;ratioP1;P1;durP2;ratioP2;P2;SDS_P1;SDS_P2;PMS_P1;PMS_P2;Temp;Humidity;BMP_temperature;BMP_pressure;BME280_temperature;BME280_humidity;BME280_pressure;Samples;Min_cycle;Max_cycle;Signal;HPM_P1;HPM_P2
2023/06/13 00:00:11;;;;;;;5.97;5.03;;;;;;;;;;5113022;28;20185;-80
2023/06/13 00:02:38;;;;;;;6.80;5.10;;;;;;;;;;5079526;28;20181;-80
2023/06/13 00:05:11;;;;;;;5.88;4.88;;;;;;;;;;5113344;28;20209;-80
2023/06/13 00:07:37;;;;;;;7.68;4.57;;;;;;;;;;5116463;28;20304;-80
2023/06/13 00:10:07;;;;;;;7.68;5.18;;;;;;;;;;5116378;28;20178;-80
2023/06/13 00:12:36;;;;;;;8.05;4.72;;;;;;;;;;5117281;28;20265;-80
2023/06/13 00:15:03;;;;;;;6.00;5.25;;;;;;;;;;5115614;28;20299;-80
2023/06/13 00:17:29;;;;;;;8.27;4.78;;;;;;;;;;5082417;28;20177;-81
2023/06/13 00:19:56;;;;;;;7.25;4.68;;;;;;;;;;5082047;28;20185;-80
2023/06/13 00:22:23;;;;;;;7.35;5.32;;;;;;;;;;5082189;28;20231;-80
2023/06/13 00:24:49;;;;;;;7.10;4.75;;;;;;;;;;5082286;28;20206;-80
2023/06/13 00:27:15;;;;;;;6.65;5.07;;;;;;;;;;5082227;28;20170;-80
2023/06/13 00:29:41;;;;;;;5.95;4.70;;;;;;;;;;5081900;28;20177;-80
2023/06/13 00:32:08;;;;;;;9.00;4.93;;;;;;;;;;5115650;28;20207;-80
2023/06/13 00:34:36;;;;;;;7.07;4.72;;;;;;;;;;5099120;28;20181;-80
2023/06/13 00:37:03;;;;;;;8.83;5.37;;;;;;;;;;5098987;28;20178;-80
2023/06/13 00:39:29;;;;;;;7.18;5.10;;;;;;;;;;5098897;28;20201;-80
2023/06/13 00:41:55;;;;;;;6.60;4.72;;;;;;;;;;5071338;28;20214;-80
2023/06/13 00:44:21;;;;;;;6.30;4.70;;;;;;;;;;5061752;28;20194;-80
2023/06/13 00:46:47;;;;;;;7.10;4.93;;;;;;;;;;5077968;28;20182;-80
2023/06/13 00:49:16;;;;;;;8.32;5.22;;;;;;;;;;5078203;28;20190;-80
2023/06/13 00:51:42;;;;;;;8.13;5.30;;;;;;;;;;5079490;28;20182;-80
2023/06/13 00:54:10;;;;;;;6.60;4.70;;;;;;;;;;5084678;28;20217;-80
2023/06/13 00:56:36;;;;;;;6.87;4.67;;;;;;;;;;5098852;28;20273;-80
2023/06/13 00:59:03;;;;;;;5.57;5.03;;;;;;;;;;5114993;28;20190;-80
2023/06/13 01:01:30;;;;;;;5.18;4.57;;;;;;;;;;5100680;27;20193;-81
2023/06/13 01:03:59;;;;;;;5.35;4.70;;;;;;;;;;5120797;27;20178;-80
2023/06/13 01:06:28;;;;;;;5.83;5.23;;;;;;;;;;5114931;28;20201;-81
2023/06/13 01:08:58;;;;;;;5.47;4.97;;;;;;;;;;5111413;27;20189;-81
2023/06/13 01:11:37;;;;;;;8.13;5.27;;;;;;;;;;5116213;27;20186;-80
2023/06/13 01:14:20;;;;;;;6.47;5.07;;;;;;;;;;5097853;28;20221;-81
2023/06/13 01:16:50;;;;;;;5.83;5.00;;;;;;;;;;5108859;27;20208;-81
2023/06/13 01:19:24;;;;;;;8.30;5.20;;;;;;;;;;5118794;27;20185;-80
2023/06/13 01:21:50;;;;;;;6.37;4.90;;;;;;;;;;5099640;27;20216;-80
2023/06/13 01:24:27;;;;;;;7.80;5.40;;;;;;;;;;5112186;27;20218;-81
2023/06/13 01:26:56;;;;;;;6.20;5.30;;;;;;;;;;5114397;28;20190;-81
2023/06/13 01:29:23;;;;;;;7.40;5.03;;;;;;;;;;5114484;28;20173;-81
2023/06/13 01:31:54;;;;;;;5.87;5.27;;;;;;;;;;5097752;27;20181;-81
2023/06/13 01:34:20;;;;;;;6.60;5.37;;;;;;;;;;5097411;28;20182;-80
2023/06/13 01:36:47;;;;;;;6.73;5.33;;;;;;;;;;5115857;28;20248;-80
2023/06/13 01:39:13;;;;;;;5.70;4.93;;;;;;;;;;5081544;28;20190;-81
2023/06/13 01:41:39;;;;;;;5.43;4.80;;;;;;;;;;5080254;28;20193;-80
2023/06/13 01:44:06;;;;;;;7.93;5.40;;;;;;;;;;5077151;28;20283;-81
2023/06/13 01:47:01;;;;;;;9.70;5.40;;;;;;;;;;5102692;27;20181;-81
2023/06/13 01:49:36;;;;;;;6.43;5.60;;;;;;;;;;5100063;28;20235;-81
2023/06/13 01:52:11;;;;;;;6.20;5.10;;;;;;;;;;5097139;28;20186;-82
2023/06/13 01:54:42;;;;;;;7.10;5.10;;;;;;;;;;5097464;28;20177;-82
2023/06/13 01:57:10;;;;;;;7.57;5.00;;;;;;;;;;5095664;28;20219;-82
2023/06/13 01:59:38;;;;;;;6.83;5.00;;;;;;;;;;5096384;28;20238;-82
2023/06/13 02:02:05;;;;;;;5.97;5.37;;;;;;;;;;5095330;28;20186;-82
2023/06/13 02:04:38;;;;;;;6.47;5.30;;;;;;;;;;5114499;28;20258;-82
2023/06/13 02:07:04;;;;;;;8.83;5.47;;;;;;;;;;5113638;28;20185;-82
2023/06/13 02:09:30;;;;;;;6.07;5.40;;;;;;;;;;5115338;28;20178;-82
2023/06/13 02:11:56;;;;;;;8.00;5.90;;;;;;;;;;5080584;28;20177;-82
2023/06/13 02:14:24;;;;;;;7.80;5.23;;;;;;;;;;5087811;28;20231;-82
2023/06/13 02:16:51;;;;;;;9.77;5.53;;;;;;;;;;5076876;28;20193;-82
2023/06/13 02:19:18;;;;;;;8.30;5.67;;;;;;;;;;5093902;28;20182;-82
2023/06/13 02:21:47;;;;;;;7.30;5.37;;;;;;;;;;5093953;28;20184;-82
2023/06/13 02:24:16;;;;;;;6.30;5.43;;;;;;;;;;5093506;28;20195;-81
2023/06/13 02:26:42;;;;;;;7.07;5.60;;;;;;;;;;5077074;28;20198;-80
2023/06/13 02:29:08;;;;;;;7.73;5.50;;;;;;;;;;5076364;28;20175;-81
2023/06/13 02:31:35;;;;;;;6.47;5.67;;;;;;;;;;5076971;28;20273;-81
2023/06/13 02:34:02;;;;;;;7.27;5.70;;;;;;;;;;5076995;28;20240;-80
2023/06/13 02:36:28;;;;;;;9.30;5.50;;;;;;;;;;5093309;28;20186;-81
2023/06/13 02:38:54;;;;;;;9.73;5.60;;;;;;;;;;5096652;28;20216;-81
2023/06/13 02:41:20;;;;;;;6.03;5.43;;;;;;;;;;5076322;28;20182;-80
2023/06/13 02:43:46;;;;;;;7.67;5.63;;;;;;;;;;5094408;28;20174;-81
2023/06/13 02:46:12;;;;;;;7.07;5.67;;;;;;;;;;5076509;28;20185;-80
2023/06/13 02:48:38;;;;;;;6.57;5.97;;;;;;;;;;5079843;28;20185;-80
2023/06/13 02:51:04;;;;;;;10.23;5.90;;;;;;;;;;5096909;28;20292;-80
2023/06/13 02:53:30;;;;;;;10.40;5.80;;;;;;;;;;5096365;28;20205;-81
2023/06/13 02:55:56;;;;;;;6.80;5.50;;;;;;;;;;5079700;28;20186;-80
2023/06/13 02:58:22;;;;;;;6.97;5.77;;;;;;;;;;5096846;28;20213;-80
2023/06/13 03:00:49;;;;;;;9.03;5.90;;;;;;;;;;5079941;28;20269;-81
2023/06/13 03:03:23;;;;;;;7.37;5.60;;;;;;;;;;5096420;28;20264;-80
2023/06/13 03:05:56;;;;;;;6.23;5.37;;;;;;;;;;5114315;28;20223;-80
2023/06/13 03:08:22;;;;;;;7.47;5.70;;;;;;;;;;5114611;28;20192;-80
2023/06/13 03:10:50;;;;;;;5.63;5.13;;;;;;;;;;5079023;28;20174;-80
2023/06/13 03:13:16;;;;;;;6.37;5.20;;;;;;;;;;5079351;28;20251;-81
2023/06/13 03:15:45;;;;;;;8.03;6.07;;;;;;;;;;5095704;28;20197;-81
2023/06/13 03:18:11;;;;;;;10.77;5.70;;;;;;;;;;5079692;28;20189;-80
2023/06/13 03:20:37;;;;;;;6.13;5.53;;;;;;;;;;5087752;28;20178;-80
2023/06/13 03:23:05;;;;;;;7.73;6.10;;;;;;;;;;5118456;28;20221;-80
2023/06/13 03:25:31;;;;;;;6.40;5.70;;;;;;;;;;5118595;28;20237;-80
2023/06/13 03:27:57;;;;;;;8.43;6.10;;;;;;;;;;5077145;28;20182;-80
2023/06/13 03:30:23;;;;;;;7.00;5.90;;;;;;;;;;5095624;28;20224;-80
2023/06/13 03:32:54;;;;;;;7.53;5.70;;;;;;;;;;5079559;28;20201;-80
2023/06/13 03:35:20;;;;;;;8.33;5.83;;;;;;;;;;5113405;28;20268;-81
2023/06/13 03:37:46;;;;;;;8.33;6.07;;;;;;;;;;5112991;28;20242;-80
2023/06/13 03:40:12;;;;;;;8.10;5.80;;;;;;;;;;5114081;28;20241;-82
2023/06/13 03:42:38;;;;;;;9.00;6.37;;;;;;;;;;5083696;28;20188;-82
2023/06/13 03:45:05;;;;;;;8.50;6.10;;;;;;;;;;5083277;28;20302;-82
2023/06/13 03:47:31;;;;;;;8.87;5.60;;;;;;;;;;5083282;28;20186;-82
2023/06/13 03:49:57;;;;;;;7.50;5.53;;;;;;;;;;5100198;28;20173;-81
2023/06/13 03:52:23;;;;;;;9.57;5.87;;;;;;;;;;5082912;28;20185;-81
2023/06/13 03:54:49;;;;;;;10.13;5.97;;;;;;;;;;5116600;28;20182;-82
2023/06/13 03:57:15;;;;;;;9.37;5.50;;;;;;;;;;5069586;28;20190;-81
2023/06/13 03:59:42;;;;;;;6.63;5.97;;;;;;;;;;5079656;28;20185;-82
2023/06/13 04:02:08;;;;;;;8.43;6.13;;;;;;;;;;5072240;28;20185;-82
2023/06/13 04:04:34;;;;;;;7.17;6.47;;;;;;;;;;5099537;28;20286;-82
2023/06/13 04:07:05;;;;;;;8.10;5.90;;;;;;;;;;5100003;28;20181;-82
2023/06/13 04:09:31;;;;;;;6.97;5.90;;;;;;;;;;5117365;28;20212;-82
2023/06/13 04:11:57;;;;;;;10.83;6.37;;;;;;;;;;5079368;28;20289;-82
2023/06/13 04:14:23;;;;;;;8.23;6.30;;;;;;;;;;5068588;28;20230;-82
2023/06/13 04:16:50;;;;;;;8.20;6.03;;;;;;;;;;5077552;28;20197;-82
2023/06/13 04:19:18;;;;;;;9.33;6.10;;;;;;;;;;5062087;28;20251;-81
2023/06/13 04:21:46;;;;;;;7.57;6.37;;;;;;;;;;5062159;28;20186;-81
2023/06/13 04:24:14;;;;;;;8.03;6.07;;;;;;;;;;5078464;28;20206;-82
2023/06/13 04:26:41;;;;;;;6.77;6.13;;;;;;;;;;5078094;28;20185;-80
2023/06/13 04:29:09;;;;;;;6.97;6.27;;;;;;;;;;5072344;28;20179;-79
2023/06/13 04:31:36;;;;;;;9.23;6.00;;;;;;;;;;5076285;28;20171;-78
2023/06/13 04:34:07;;;;;;;7.63;6.47;;;;;;;;;;5055181;28;20209;-79
2023/06/13 04:36:35;;;;;;;11.47;6.33;;;;;;;;;;5076372;28;20258;-78
2023/06/13 04:39:05;;;;;;;8.90;6.07;;;;;;;;;;5077074;28;20247;-78
2023/06/13 04:41:35;;;;;;;7.47;6.07;;;;;;;;;;5077842;28;20262;-78
2023/06/13 04:44:03;;;;;;;6.87;6.17;;;;;;;;;;5070927;28;20187;-78
2023/06/13 04:46:30;;;;;;;9.00;6.27;;;;;;;;;;5060631;28;20175;-78
2023/06/13 04:48:57;;;;;;;7.73;6.40;;;;;;;;;;5071798;28;20171;-78
2023/06/13 04:51:23;;;;;;;7.70;6.47;;;;;;;;;;5078089;28;20247;-78
2023/06/13 04:53:49;;;;;;;7.20;6.37;;;;;;;;;;5061365;28;20175;-78
2023/06/13 04:56:16;;;;;;;6.93;5.60;;;;;;;;;;5061301;28;20198;-79
2023/06/13 04:58:42;;;;;;;10.03;6.10;;;;;;;;;;5061625;28;20200;-78
2023/06/13 05:01:08;;;;;;;7.77;6.70;;;;;;;;;;5078181;28;20171;-79
2023/06/13 05:03:34;;;;;;;9.17;6.23;;;;;;;;;;5061444;28;20266;-78
2023/06/13 05:06:00;;;;;;;7.07;6.37;;;;;;;;;;5077701;28;20236;-79
2023/06/13 05:08:28;;;;;;;9.90;6.37;;;;;;;;;;5061269;28;20178;-79
2023/06/13 05:10:54;;;;;;;7.73;6.30;;;;;;;;;;5061315;28;20182;-79
2023/06/13 05:13:20;;;;;;;7.50;6.33;;;;;;;;;;5078260;28;20229;-81
2023/06/13 05:15:46;;;;;;;8.83;6.10;;;;;;;;;;5094890;28;20175;-82
2023/06/13 05:18:12;;;;;;;8.07;5.90;;;;;;;;;;5078184;28;20186;-82
2023/06/13 05:20:43;;;;;;;10.07;6.10;;;;;;;;;;5090773;28;20179;-82
2023/06/13 05:23:10;;;;;;;7.43;6.13;;;;;;;;;;5090896;28;20210;-82
2023/06/13 05:25:36;;;;;;;8.50;6.00;;;;;;;;;;5090731;28;20199;-82
2023/06/13 05:28:03;;;;;;;9.33;6.10;;;;;;;;;;5090635;28;20186;-81
2023/06/13 05:30:29;;;;;;;6.77;6.10;;;;;;;;;;5090773;28;20184;-82
2023/06/13 05:32:56;;;;;;;8.33;6.33;;;;;;;;;;5094803;28;20163;-82
2023/06/13 05:35:23;;;;;;;8.27;6.20;;;;;;;;;;5077578;28;20261;-82
2023/06/13 05:37:49;;;;;;;6.70;6.10;;;;;;;;;;5096757;28;20186;-82
2023/06/13 05:40:16;;;;;;;7.60;6.40;;;;;;;;;;5112172;28;20182;-82
2023/06/13 05:42:42;;;;;;;11.47;6.33;;;;;;;;;;5097539;28;20212;-82
2023/06/13 05:45:08;;;;;;;6.90;6.20;;;;;;;;;;5090832;28;20233;-82
2023/06/13 05:47:35;;;;;;;7.13;6.43;;;;;;;;;;5088969;28;20185;-82
2023/06/13 05:50:01;;;;;;;10.13;6.37;;;;;;;;;;5079288;28;20243;-82
2023/06/13 05:52:27;;;;;;;6.90;6.23;;;;;;;;;;5079226;28;20224;-82
2023/06/13 05:54:53;;;;;;;7.13;6.43;;;;;;;;;;5093057;28;20186;-82
2023/06/13 05:57:19;;;;;;;9.67;6.77;;;;;;;;;;5106347;28;20185;-82
2023/06/13 05:59:45;;;;;;;9.87;7.13;;;;;;;;;;5080068;28;20250;-82
2023/06/13 06:02:12;;;;;;;7.00;6.30;;;;;;;;;;5111923;28;20192;-82
2023/06/13 06:04:38;;;;;;;7.07;6.00;;;;;;;;;;5095742;28;20216;-82
2023/06/13 06:07:04;;;;;;;7.83;6.30;;;;;;;;;;5097061;28;20177;-82
2023/06/13 06:09:31;;;;;;;7.67;6.57;;;;;;;;;;5096387;28;20178;-82
2023/06/13 06:11:57;;;;;;;7.30;6.57;;;;;;;;;;5097067;28;20264;-82
2023/06/13 06:14:23;;;;;;;9.17;6.20;;;;;;;;;;5088231;28;20253;-83
2023/06/13 06:16:52;;;;;;;7.47;5.97;;;;;;;;;;5066080;28;20273;-82
2023/06/13 06:19:18;;;;;;;8.43;6.07;;;;;;;;;;5070271;28;20194;-82
2023/06/13 06:21:44;;;;;;;7.83;6.10;;;;;;;;;;5058042;28;20196;-82
2023/06/13 06:24:10;;;;;;;6.70;6.00;;;;;;;;;;5059803;28;20185;-82
2023/06/13 06:26:37;;;;;;;9.77;6.60;;;;;;;;;;5069794;28;20223;-82
2023/06/13 06:29:03;;;;;;;8.60;6.40;;;;;;;;;;5091062;28;20187;-83
2023/06/13 06:31:29;;;;;;;6.83;5.80;;;;;;;;;;5088824;28;20183;-83
2023/06/13 06:33:55;;;;;;;7.83;6.03;;;;;;;;;;5073749;28;20281;-83
2023/06/13 06:36:22;;;;;;;7.50;6.17;;;;;;;;;;5063380;28;20347;-83
2023/06/13 06:38:49;;;;;;;9.43;6.57;;;;;;;;;;5061063;27;20182;-83
2023/06/13 06:41:16;;;;;;;8.00;6.10;;;;;;;;;;5079733;28;20243;-83
2023/06/13 06:43:42;;;;;;;6.93;6.23;;;;;;;;;;5076157;28;20342;-83
2023/06/13 06:46:08;;;;;;;8.00;6.20;;;;;;;;;;5078929;28;20206;-83
2023/06/13 06:48:35;;;;;;;11.90;6.17;;;;;;;;;;5059420;28;20213;-83
2023/06/13 06:51:01;;;;;;;7.87;6.23;;;;;;;;;;5094186;28;20221;-83
2023/06/13 06:53:28;;;;;;;7.27;5.83;;;;;;;;;;5074622;28;20218;-83
2023/06/13 06:55:55;;;;;;;8.27;5.80;;;;;;;;;;5092878;28;20194;-83
2023/06/13 06:58:21;;;;;;;11.23;6.00;;;;;;;;;;5079312;28;20205;-82
2023/06/13 07:00:47;;;;;;;7.13;5.70;;;;;;;;;;5104749;28;20181;-82
2023/06/13 07:03:13;;;;;;;8.20;5.80;;;;;;;;;;5089832;28;20185;-82
2023/06/13 07:05:40;;;;;;;6.93;5.47;;;;;;;;;;5058377;28;20233;-83
2023/06/13 07:08:06;;;;;;;8.03;6.00;;;;;;;;;;5077050;28;20215;-83
2023/06/13 07:10:33;;;;;;;9.53;5.60;;;;;;;;;;5065081;28;20225;-82
2023/06/13 07:12:59;;;;;;;6.53;5.50;;;;;;;;;;5084697;28;20197;-82
2023/06/13 07:15:25;;;;;;;9.43;5.50;;;;;;;;;;5075890;28;20198;-82
2023/06/13 07:17:52;;;;;;;8.70;5.50;;;;;;;;;;5082339;28;20239;-83
2023/06/13 07:20:19;;;;;;;8.90;5.07;;;;;;;;;;5084079;28;20186;-82
2023/06/13 07:22:45;;;;;;;7.60;5.37;;;;;;;;;;5094635;27;20215;-82
2023/06/13 07:25:12;;;;;;;13.33;5.90;;;;;;;;;;5079582;27;20449;-82
2023/06/13 07:27:38;;;;;;;6.57;5.63;;;;;;;;;;5114437;27;20190;-82
2023/06/13 07:30:04;;;;;;;9.90;5.40;;;;;;;;;;5074616;27;20203;-82
2023/06/13 07:32:30;;;;;;;8.80;5.20;;;;;;;;;;5112295;27;20249;-82
2023/06/13 07:34:56;;;;;;;12.50;5.40;;;;;;;;;;5094606;28;20250;-83
2023/06/13 07:37:22;;;;;;;6.20;5.60;;;;;;;;;;5082532;28;20198;-83
2023/06/13 07:39:48;;;;;;;5.95;5.15;;;;;;;;;;5082571;28;20182;-83
2023/06/13 07:42:14;;;;;;;8.25;5.50;;;;;;;;;;5097509;28;20190;-83
2023/06/13 07:44:41;;;;;;;7.32;5.10;;;;;;;;;;5082465;28;20471;-82
2023/06/13 07:47:07;;;;;;;8.82;5.60;;;;;;;;;;5082829;28;20423;-82
2023/06/13 07:49:33;;;;;;;8.98;5.45;;;;;;;;;;5082700;28;20169;-82
2023/06/13 07:51:59;;;;;;;10.13;5.20;;;;;;;;;;5082923;28;20201;-82
2023/06/13 07:54:25;;;;;;;6.70;5.43;;;;;;;;;;5082911;28;20181;-82
2023/06/13 07:56:52;;;;;;;8.00;5.38;;;;;;;;;;5116219;28;20184;-83
2023/06/13 07:59:18;;;;;;;8.80;5.15;;;;;;;;;;5116228;28;20174;-84
2023/06/13 08:01:44;;;;;;;8.77;5.55;;;;;;;;;;5099211;28;20186;-84
2023/06/13 08:04:10;;;;;;;10.13;5.15;;;;;;;;;;5116302;28;20177;-84
2023/06/13 08:06:36;;;;;;;7.40;5.53;;;;;;;;;;5115916;28;20189;-84
2023/06/13 08:09:04;;;;;;;6.28;5.28;;;;;;;;;;5082331;28;20415;-85
2023/06/13 08:11:30;;;;;;;5.55;4.85;;;;;;;;;;5115574;28;20177;-84
2023/06/13 08:13:56;;;;;;;5.25;4.75;;;;;;;;;;5099190;28;20229;-84
2023/06/13 08:16:22;;;;;;;6.38;4.97;;;;;;;;;;5092502;28;20265;-85
2023/06/13 08:18:48;;;;;;;9.43;5.38;;;;;;;;;;5082501;28;20266;-85
2023/06/13 08:21:14;;;;;;;5.90;5.30;;;;;;;;;;5077986;28;20190;-85
2023/06/13 08:23:40;;;;;;;7.35;5.32;;;;;;;;;;5068776;28;20182;-85
2023/06/13 08:26:06;;;;;;;6.30;4.80;;;;;;;;;;5062094;28;20217;-85
2023/06/13 08:28:33;;;;;;;7.50;5.03;;;;;;;;;;5070664;28;20241;-84
2023/06/13 08:30:59;;;;;;;9.20;5.05;;;;;;;;;;5085566;28;20178;-85
2023/06/13 08:33:25;;;;;;;7.07;5.03;;;;;;;;;;5083173;28;20182;-85
2023/06/13 08:35:51;;;;;;;5.43;4.95;;;;;;;;;;5070886;27;20189;-85
2023/06/13 08:38:18;;;;;;;7.60;4.80;;;;;;;;;;5085515;28;20178;-84
2023/06/13 08:40:44;;;;;;;7.15;4.95;;;;;;;;;;5075312;28;20183;-85
2023/06/13 08:43:10;;;;;;;4.82;4.43;;;;;;;;;;5081998;28;20217;-85
2023/06/13 08:45:36;;;;;;;7.82;4.85;;;;;;;;;;5086553;28;20205;-84
2023/06/13 08:48:02;;;;;;;5.10;4.60;;;;;;;;;;5056502;28;20186;-85
2023/06/13 08:50:29;;;;;;;5.38;4.50;;;;;;;;;;5074957;28;20232;-84
2023/06/13 08:52:57;;;;;;;7.13;4.65;;;;;;;;;;5094279;28;20224;-85
2023/06/13 08:55:24;;;;;;;5.63;4.78;;;;;;;;;;5084199;28;20177;-84
2023/06/13 08:57:53;;;;;;;7.38;4.95;;;;;;;;;;5083233;28;20193;-85
2023/06/13 09:00:21;;;;;;;6.20;4.15;;;;;;;;;;5081467;28;20230;-85
2023/06/13 09:02:47;;;;;;;5.22;4.57;;;;;;;;;;5090727;28;20185;-85
2023/06/13 09:05:15;;;;;;;5.40;4.78;;;;;;;;;;5087473;28;20312;-85
2023/06/13 09:07:41;;;;;;;8.82;4.38;;;;;;;;;;5098028;28;20170;-84
2023/06/13 09:10:10;;;;;;;6.20;4.68;;;;;;;;;;5097549;28;20177;-85
2023/06/13 09:12:37;;;;;;;6.65;4.10;;;;;;;;;;5096260;28;20178;-85
2023/06/13 09:15:03;;;;;;;4.78;4.38;;;;;;;;;;5097999;28;20244;-85
2023/06/13 09:17:29;;;;;;;7.68;4.35;;;;;;;;;;5097277;28;20182;-85
2023/06/13 09:19:55;;;;;;;4.32;3.92;;;;;;;;;;5096192;28;20189;-85
2023/06/13 09:22:22;;;;;;;4.68;3.95;;;;;;;;;;5081455;28;20174;-85
2023/06/13 09:24:48;;;;;;;4.72;4.07;;;;;;;;;;5097768;28;20202;-85
2023/06/13 09:27:14;;;;;;;5.40;4.20;;;;;;;;;;5097672;28;20174;-85
2023/06/13 09:29:40;;;;;;;6.50;4.63;;;;;;;;;;5076204;28;20226;-85
2023/06/13 09:32:08;;;;;;;6.25;4.57;;;;;;;;;;5090290;28;20186;-85
2023/06/13 09:34:34;;;;;;;5.63;4.25;;;;;;;;;;5092361;28;20182;-85
2023/06/13 09:37:00;;;;;;;6.50;4.32;;;;;;;;;;5062513;28;20197;-85
2023/06/13 09:39:28;;;;;;;6.60;4.60;;;;;;;;;;5088018;28;20182;-85
2023/06/13 09:41:57;;;;;;;5.60;5.10;;;;;;;;;;5097297;28;20174;-86
2023/06/13 09:44:24;;;;;;;5.53;4.53;;;;;;;;;;5081585;28;20198;-85
2023/06/13 09:46:54;;;;;;;8.23;4.78;;;;;;;;;;5076226;28;20182;-85
2023/06/13 09:49:20;;;;;;;6.85;4.43;;;;;;;;;;5080630;28;20193;-86
2023/06/13 09:51:47;;;;;;;5.82;4.80;;;;;;;;;;5078545;28;20189;-84
2023/06/13 09:54:14;;;;;;;6.20;4.60;;;;;;;;;;5080122;28;20290;-84
2023/06/13 09:56:43;;;;;;;5.90;4.50;;;;;;;;;;5075922;28;20184;-83
2023/06/13 09:59:19;;;;;;;4.88;4.45;;;;;;;;;;5101506;27;20170;-84
2023/06/13 10:01:47;;;;;;;5.53;4.88;;;;;;;;;;5097113;28;20173;-84
2023/06/13 10:04:13;;;;;;;6.15;4.28;;;;;;;;;;5093915;28;20202;-85
2023/06/13 10:06:39;;;;;;;6.38;4.60;;;;;;;;;;5083516;28;21495;-84
2023/06/13 10:09:05;;;;;;;5.25;4.43;;;;;;;;;;5086015;28;20181;-84
2023/06/13 10:11:35;;;;;;;5.72;5.18;;;;;;;;;;5095717;28;20189;-84
2023/06/13 10:14:07;;;;;;;5.82;4.47;;;;;;;;;;5095387;28;20275;-84
2023/06/13 10:16:36;;;;;;;7.60;5.05;;;;;;;;;;5083703;28;20182;-84
2023/06/13 10:19:05;;;;;;;5.63;4.82;;;;;;;;;;5081675;28;20193;-85
2023/06/13 10:21:32;;;;;;;8.18;4.95;;;;;;;;;;5093280;28;20193;-85
2023/06/13 10:23:58;;;;;;;6.00;4.65;;;;;;;;;;5096083;28;20178;-85
2023/06/13 10:26:28;;;;;;;5.63;4.65;;;;;;;;;;5096258;28;20210;-86
2023/06/13 10:29:00;;;;;;;7.05;4.80;;;;;;;;;;5096811;28;20178;-86
2023/06/13 10:31:48;;;;;;;6.25;4.90;;;;;;;;;;5094565;28;20188;-86
2023/06/13 10:34:34;;;;;;;6.22;5.03;;;;;;;;;;5096635;28;20204;-86
2023/06/13 10:37:19;;;;;;;7.13;5.35;;;;;;;;;;5092495;28;20174;-86
2023/06/13 10:39:53;;;;;;;5.25;4.75;;;;;;;;;;5096264;28;20174;-86
2023/06/13 10:42:23;;;;;;;5.18;4.68;;;;;;;;;;5092311;28;20174;-84
2023/06/13 10:44:49;;;;;;;6.50;4.75;;;;;;;;;;5095360;28;20216;-85
2023/06/13 10:47:17;;;;;;;8.60;4.70;;;;;;;;;;5093960;28;20177;-85
2023/06/13 10:49:45;;;;;;;5.20;4.80;;;;;;;;;;5094328;28;20212;-84
2023/06/13 10:52:11;;;;;;;8.70;5.22;;;;;;;;;;5079227;28;20178;-85
2023/06/13 10:54:39;;;;;;;6.85;4.97;;;;;;;;;;5096739;28;20169;-85
2023/06/13 10:57:05;;;;;;;5.47;4.90;;;;;;;;;;5080185;28;20182;-85
2023/06/13 10:59:36;;;;;;;5.82;5.22;;;;;;;;;;5096717;28;20180;-85
2023/06/13 11:02:03;;;;;;;5.40;4.90;;;;;;;;;;5096689;28;20264;-85
2023/06/13 11:04:30;;;;;;;6.10;5.13;;;;;;;;;;5091066;28;20229;-85
2023/06/13 11:07:14;;;;;;;8.30;5.40;;;;;;;;;;5075990;28;20182;-84
2023/06/13 11:09:40;;;;;;;5.30;4.88;;;;;;;;;;5088987;28;20205;-85
2023/06/13 11:12:07;;;;;;;5.25;4.78;;;;;;;;;;5079799;28;20181;-85
2023/06/13 11:14:36;;;;;;;8.18;5.30;;;;;;;;;;5079133;28;20225;-85
2023/06/13 11:17:03;;;;;;;8.40;4.70;;;;;;;;;;5089078;28;20229;-85
2023/06/13 11:19:29;;;;;;;6.10;5.20;;;;;;;;;;5089847;28;20178;-85
2023/06/13 11:21:58;;;;;;;8.70;4.97;;;;;;;;;;5079427;28;20273;-84
2023/06/13 11:24:24;;;;;;;11.10;5.50;;;;;;;;;;5095878;28;20208;-87
2023/06/13 11:26:50;;;;;;;5.22;4.78;;;;;;;;;;5095420;28;20176;-87
2023/06/13 11:29:17;;;;;;;5.20;4.70;;;;;;;;;;5095868;28;20210;-85
2023/06/13 11:31:43;;;;;;;6.43;5.15;;;;;;;;;;5093021;28;20175;-86
2023/06/13 11:34:16;;;;;;;6.32;5.18;;;;;;;;;;5079634;28;20183;-87
2023/06/13 11:36:43;;;;;;;5.88;5.15;;;;;;;;;;5115837;28;20208;-88
2023/06/13 11:39:13;;;;;;;6.85;4.70;;;;;;;;;;5127858;28;20177;-87
2023/06/13 11:41:39;;;;;;;5.97;5.03;;;;;;;;;;5114416;28;20235;-86
2023/06/13 11:44:06;;;;;;;6.80;5.25;;;;;;;;;;5076879;28;20206;-87
2023/06/13 11:46:32;;;;;;;7.88;5.05;;;;;;;;;;5085954;28;20211;-87
2023/06/13 11:48:59;;;;;;;10.20;5.05;;;;;;;;;;5118763;28;20209;-86
2023/06/13 11:51:27;;;;;;;10.38;5.50;;;;;;;;;;5089676;28;20187;-84
2023/06/13 11:54:03;;;;;;;6.25;4.75;;;;;;;;;;5103392;28;20174;-86
2023/06/13 11:56:34;;;;;;;7.40;4.93;;;;;;;;;;5091246;28;20276;-85
2023/06/13 11:59:00;;;;;;;6.00;5.40;;;;;;;;;;5076799;28;20183;-85
2023/06/13 12:01:27;;;;;;;7.80;5.40;;;;;;;;;;5074943;28;20221;-87
2023/06/13 12:03:59;;;;;;;6.57;5.13;;;;;;;;;;5091416;28;20178;-87
2023/06/13 12:06:26;;;;;;;9.85;5.10;;;;;;;;;;5087353;28;20232;-87
2023/06/13 12:08:52;;;;;;;7.88;5.28;;;;;;;;;;5076238;28;20306;-85
2023/06/13 12:11:20;;;;;;;24.02;6.10;;;;;;;;;;5079824;28;20177;-85
2023/06/13 12:13:55;;;;;;;20.02;6.07;;;;;;;;;;5095836;28;20206;-85
2023/06/13 12:16:23;;;;;;;5.40;4.90;;;;;;;;;;5095374;28;20188;-86
2023/06/13 12:18:56;;;;;;;11.48;5.40;;;;;;;;;;5107883;28;20182;-85
2023/06/13 12:21:27;;;;;;;7.50;5.35;;;;;;;;;;5096344;28;20245;-86
2023/06/13 12:23:54;;;;;;;6.43;5.15;;;;;;;;;;5098233;28;20184;-86
2023/06/13 12:26:20;;;;;;;8.45;4.80;;;;;;;;;;5080947;28;20359;-85
2023/06/13 12:28:47;;;;;;;7.10;5.82;;;;;;;;;;5097687;28;20174;-86
2023/06/13 12:31:13;;;;;;;7.35;5.30;;;;;;;;;;5098918;28;20177;-87
2023/06/13 12:33:41;;;;;;;9.43;5.43;;;;;;;;;;5098432;28;20257;-87
2023/06/13 12:36:09;;;;;;;5.18;4.70;;;;;;;;;;5081308;28;20181;-86
2023/06/13 12:38:35;;;;;;;6.75;5.05;;;;;;;;;;5114630;28;20174;-85
2023/06/13 12:41:12;;;;;;;6.28;5.68;;;;;;;;;;5098434;28;20178;-86
2023/06/13 12:43:41;;;;;;;7.57;5.07;;;;;;;;;;5098557;28;20200;-85
2023/06/13 12:46:07;;;;;;;7.28;5.38;;;;;;;;;;5097808;28;20292;-86
2023/06/13 12:48:37;;;;;;;6.82;6.05;;;;;;;;;;5078059;28;20208;-84
2023/06/13 12:51:03;;;;;;;8.48;5.32;;;;;;;;;;5098114;28;20173;-84
2023/06/13 12:53:31;;;;;;;8.18;5.40;;;;;;;;;;5097051;28;20170;-85
2023/06/13 12:56:00;;;;;;;9.00;5.25;;;;;;;;;;5096593;27;20205;-86
2023/06/13 12:58:30;;;;;;;5.97;5.45;;;;;;;;;;5096190;28;20190;-84
2023/06/13 13:00:57;;;;;;;6.00;5.40;;;;;;;;;;5082073;28;20197;-85
2023/06/13 13:03:23;;;;;;;8.25;5.70;;;;;;;;;;5102027;28;20180;-83
2023/06/13 13:05:51;;;;;;;9.25;5.43;;;;;;;;;;5076596;28;20344;-83
2023/06/13 13:08:18;;;;;;;6.70;5.13;;;;;;;;;;5077381;28;20256;-83
2023/06/13 13:10:44;;;;;;;12.10;5.55;;;;;;;;;;5104728;28;20186;-83
2023/06/13 13:13:14;;;;;;;5.80;5.20;;;;;;;;;;5113656;28;20228;-84
2023/06/13 13:15:40;;;;;;;6.18;5.57;;;;;;;;;;5096480;28;20253;-84
2023/06/13 13:18:07;;;;;;;10.13;5.18;;;;;;;;;;5098310;28;20180;-83
2023/06/13 13:20:33;;;;;;;8.55;5.30;;;;;;;;;;5094089;28;20197;-86
2023/06/13 13:23:00;;;;;;;74.28;8.45;;;;;;;;;;5097114;28;20170;-83
2023/06/13 13:25:26;;;;;;;5.38;4.88;;;;;;;;;;5097667;28;20292;-82
2023/06/13 13:27:53;;;;;;;71.18;64.18;;;;;;;;;;5097552;28;20170;-83
2023/06/13 13:30:20;;;;;;;7.57;5.30;;;;;;;;;;5081227;28;20227;-83
2023/06/13 13:32:52;;;;;;;6.32;5.25;;;;;;;;;;5094574;28;20195;-84
2023/06/13 13:35:20;;;;;;;9.00;5.63;;;;;;;;;;5092048;28;20189;-84
2023/06/13 13:37:46;;;;;;;7.30;5.45;;;;;;;;;;5097251;28;20178;-84
2023/06/13 13:40:12;;;;;;;5.97;4.93;;;;;;;;;;5078125;28;20178;-85
2023/06/13 13:42:39;;;;;;;13.30;5.50;;;;;;;;;;5060586;28;20233;-85
2023/06/13 13:45:06;;;;;;;11.95;5.68;;;;;;;;;;5077237;28;20205;-85
2023/06/13 13:47:32;;;;;;;8.77;4.95;;;;;;;;;;5061740;28;20182;-84
2023/06/13 13:49:58;;;;;;;5.95;5.30;;;;;;;;;;5095766;28;20178;-85
2023/06/13 13:52:27;;;;;;;9.68;5.57;;;;;;;;;;5083366;28;20208;-84
2023/06/13 13:54:54;;;;;;;7.07;5.15;;;;;;;;;;5109848;28;20184;-85
2023/06/13 13:57:20;;;;;;;6.28;5.15;;;;;;;;;;5096730;28;20184;-84
2023/06/13 13:59:49;;;;;;;7.13;5.30;;;;;;;;;;5094938;28;20217;-83
2023/06/13 14:02:15;;;;;;;6.53;5.25;;;;;;;;;;5072625;28;20198;-84
2023/06/13 14:04:41;;;;;;;6.80;5.32;;;;;;;;;;5076708;28;20213;-84
2023/06/13 14:07:07;;;;;;;5.40;4.97;;;;;;;;;;5098187;28;20186;-84
2023/06/13 14:09:33;;;;;;;5.55;5.05;;;;;;;;;;5114223;28;20189;-84
2023/06/13 14:11:59;;;;;;;6.57;5.80;;;;;;;;;;5111843;28;20178;-84
2023/06/13 14:14:26;;;;;;;5.90;5.40;;;;;;;;;;5080438;28;20275;-84
2023/06/13 14:16:53;;;;;;;6.10;5.25;;;;;;;;;;5097581;28;20174;-84
2023/06/13 14:19:19;;;;;;;8.13;5.57;;;;;;;;;;5097403;28;20174;-82
2023/06/13 14:21:45;;;;;;;6.80;4.95;;;;;;;;;;5087763;27;20226;-83
2023/06/13 14:24:11;;;;;;;7.25;4.95;;;;;;;;;;5116883;27;20165;-82
2023/06/13 14:26:37;;;;;;;6.30;5.35;;;;;;;;;;5086018;28;20193;-83
2023/06/13 14:29:03;;;;;;;8.00;5.25;;;;;;;;;;5083006;28;20205;-84
2023/06/13 14:31:29;;;;;;;8.48;6.07;;;;;;;;;;5079936;28;20239;-83
2023/06/13 14:33:56;;;;;;;6.10;5.50;;;;;;;;;;5080183;28;20179;-83
2023/06/13 14:36:22;;;;;;;5.95;4.88;;;;;;;;;;5109276;28;20208;-86
2023/06/13 14:38:48;;;;;;;8.05;5.45;;;;;;;;;;5113649;28;20257;-84
2023/06/13 14:41:14;;;;;;;6.78;4.88;;;;;;;;;;5097054;28;20204;-82
2023/06/13 14:43:41;;;;;;;6.15;5.15;;;;;;;;;;5096864;28;20177;-87